Time;durP1;ratioP1;P1;durP2;ratioP2;P2;SDS_P1;SDS_P2;PMS_P1;PMS_P2;Temp;Humidity;BMP_temperature;BMP_pressure;BME280_temperature;BME280_humidity;BME280_pressure;Samples;Min_cycle;Max_cycle;Signal;HPM_P1;HPM_P2
2021/11/13 00:00:30;;;;;;;4.37;2.70;;;25.80;36.30;;;;;;5064110;28;20466;-75
2021/11/13 00:02:56;;;;;;;3.80;2.50;;;25.80;36.20;;;;;;5063049;28;20420;-75
2021/11/13 00:05:22;;;;;;;3.87;2.43;;;25.80;36.20;;;;;;5062511;28;20423;-75
2021/11/13 00:07:47;;;;;;;3.13;2.50;;;25.80;36.30;;;;;;5062370;28;20391;-74
2021/11/13 00:10:16;;;;;;;3.83;2.47;;;25.80;36.30;;;;;;5061301;28;20402;-75
2021/11/13 00:12:43;;;;;;;4.28;2.50;;;25.80;36.30;;;;;;5064135;28;20449;-74
2021/11/13 00:15:10;;;;;;;3.30;2.35;;;25.70;36.20;;;;;;5079017;28;20928;-73
2021/11/13 00:17:37;;;;;;;3.35;2.50;;;25.70;36.20;;;;;;5062565;28;20478;-75
2021/11/13 00:20:05;;;;;;;4.40;2.30;;;25.70;36.20;;;;;;5063518;28;20387;-75
2021/11/13 00:22:31;;;;;;;3.10;2.13;;;25.70;36.20;;;;;;5062606;28;20420;-75
2021/11/13 00:24:56;;;;;;;2.90;2.30;;;25.70;36.20;;;;;;5060294;28;20456;-74
2021/11/13 00:27:22;;;;;;;3.20;2.50;;;25.60;36.20;;;;;;5060405;28;20466;-74
2021/11/13 00:29:48;;;;;;;2.90;2.20;;;25.60;36.20;;;;;;5057168;28;20400;-75
2021/11/13 00:32:14;;;;;;;3.40;2.50;;;25.60;36.20;;;;;;5058450;28;20424;-74
2021/11/13 00:34:39;;;;;;;2.75;2.10;;;25.60;36.20;;;;;;5055013;28;20400;-74
2021/11/13 00:37:05;;;;;;;3.07;2.13;;;25.60;36.30;;;;;;5056179;28;20502;-74
2021/11/13 00:39:32;;;;;;;2.78;2.20;;;25.60;36.20;;;;;;5058881;28;20832;-73
2021/11/13 00:41:57;;;;;;;4.03;2.30;;;25.50;36.20;;;;;;5054284;28;20409;-76
2021/11/13 00:44:23;;;;;;;3.10;2.17;;;25.50;36.30;;;;;;5061343;28;20392;-73
2021/11/13 00:46:49;;;;;;;3.25;2.00;;;25.50;36.30;;;;;;5063758;28;21015;-75
2021/11/13 00:49:16;;;;;;;2.80;2.10;;;25.50;36.30;;;;;;5063244;28;20649;-75
2021/11/13 00:51:42;;;;;;;2.70;2.15;;;25.50;36.30;;;;;;5064337;28;20757;-76
2021/11/13 00:54:07;;;;;;;2.70;1.90;;;25.50;36.30;;;;;;5062752;28;20424;-75
2021/11/13 00:56:33;;;;;;;3.00;2.00;;;25.40;36.30;;;;;;5062882;28;20436;-75
2021/11/13 00:58:59;;;;;;;2.55;1.92;;;25.40;36.30;;;;;;5063580;28;20449;-74
2021/11/13 01:01:24;;;;;;;2.72;1.92;;;25.40;36.30;;;;;;5063008;28;20388;-75
2021/11/13 01:03:50;;;;;;;2.50;2.07;;;25.40;36.30;;;;;;5062536;28;20396;-74
2021/11/13 01:06:16;;;;;;;2.83;2.03;;;25.40;36.30;;;;;;5063850;28;20388;-75
2021/11/13 01:08:42;;;;;;;3.40;2.10;;;25.30;36.30;;;;;;5062430;28;20388;-72
2021/11/13 01:11:08;;;;;;;3.13;2.10;;;25.30;36.30;;;;;;5061127;28;20396;-74
2021/11/13 01:13:34;;;;;;;2.50;1.70;;;25.30;36.30;;;;;;5063387;28;20420;-74
2021/11/13 01:16:00;;;;;;;3.00;1.90;;;25.30;36.30;;;;;;5063516;28;20399;-73
2021/11/13 01:18:26;;;;;;;3.28;2.15;;;25.30;36.40;;;;;;5063789;28;20441;-76
2021/11/13 01:20:53;;;;;;;2.25;1.85;;;25.30;36.50;;;;;;5062345;28;20441;-74
2021/11/13 01:23:19;;;;;;;2.25;1.90;;;25.20;36.40;;;;;;5062184;28;20751;-74
2021/11/13 01:25:44;;;;;;;2.92;1.98;;;25.20;36.50;;;;;;5061379;28;20814;-75
2021/11/13 01:28:10;;;;;;;2.58;2.00;;;25.20;36.50;;;;;;5063564;28;20487;-73
2021/11/13 01:30:36;;;;;;;2.50;1.90;;;25.10;36.40;;;;;;5063842;28;20945;-75
2021/11/13 01:33:02;;;;;;;2.00;1.80;;;25.10;36.40;;;;;;5061976;28;20427;-74
2021/11/13 01:35:27;;;;;;;2.80;2.00;;;25.10;36.50;;;;;;5062464;28;21192;-75
2021/11/13 01:37:53;;;;;;;2.38;1.80;;;25.10;36.50;;;;;;5061768;28;20893;-74
2021/11/13 01:40:21;;;;;;;2.50;1.95;;;25.10;36.60;;;;;;5062411;28;20954;-76
2021/11/13 01:42:48;;;;;;;3.13;2.13;;;25.00;36.40;;;;;;5063449;28;20398;-73
2021/11/13 01:45:15;;;;;;;2.70;2.08;;;25.00;36.50;;;;;;5061989;28;20800;-74
2021/11/13 01:47:42;;;;;;;3.50;1.88;;;25.00;36.50;;;;;;5063496;28;20446;-72
2021/11/13 01:50:14;;;;;;;3.15;1.90;;;25.00;36.50;;;;;;5061885;28;20435;-74
2021/11/13 01:52:40;;;;;;;2.42;1.70;;;25.00;36.60;;;;;;5062117;28;20415;-72
2021/11/13 01:55:06;;;;;;;2.30;1.80;;;24.90;36.60;;;;;;5061519;28;20456;-72
2021/11/13 01:57:43;;;;;;;3.25;1.92;;;24.90;36.60;;;;;;5063422;28;20781;-74
2021/11/13 02:00:12;;;;;;;2.40;1.67;;;24.90;37.30;;;;;;5063638;28;20380;-76
2021/11/13 02:02:39;;;;;;;2.33;1.80;;;24.80;36.60;;;;;;5062799;28;20387;-75
2021/11/13 02:05:05;;;;;;;2.60;1.70;;;24.80;36.60;;;;;;5063084;28;20433;-74
2021/11/13 02:07:31;;;;;;;2.30;1.67;;;24.80;36.60;;;;;;5063403;28;20792;-75
2021/11/13 02:09:56;;;;;;;2.72;1.90;;;24.80;36.70;;;;;;5061799;28;20390;-75
2021/11/13 02:12:22;;;;;;;2.25;1.70;;;24.80;36.70;;;;;;5061699;28;21452;-75
2021/11/13 02:14:48;;;;;;;2.47;1.70;;;24.70;36.70;;;;;;5061693;28;20399;-75
2021/11/13 02:17:14;;;;;;;2.05;1.60;;;24.70;36.70;;;;;;5061601;28;20403;-73
2021/11/13 02:19:40;;;;;;;3.10;1.77;;;24.70;36.80;;;;;;5062827;28;20392;-75
2021/11/13 02:22:06;;;;;;;2.50;1.70;;;24.70;36.80;;;;;;5061370;28;20455;-75
2021/11/13 02:24:31;;;;;;;1.95;1.60;;;24.70;37.50;;;;;;5062893;28;20406;-75
2021/11/13 02:26:57;;;;;;;2.53;1.70;;;24.60;36.80;;;;;;5061604;28;20689;-74
2021/11/13 02:29:23;;;;;;;2.40;1.67;;;24.60;36.80;;;;;;5063141;28;20396;-76
2021/11/13 02:31:49;;;;;;;2.65;1.77;;;24.60;36.90;;;;;;5063071;28;20453;-75
2021/11/13 02:34:15;;;;;;;2.30;1.60;;;24.60;36.90;;;;;;5062890;28;20817;-74
2021/11/13 02:36:41;;;;;;;2.90;1.73;;;24.60;36.90;;;;;;5061553;28;20383;-74
2021/11/13 02:39:11;;;;;;;2.30;1.63;;;24.50;37.00;;;;;;5066611;28;20489;-74
2021/11/13 02:41:37;;;;;;;3.65;1.60;;;24.50;36.90;;;;;;5066527;28;20390;-72
2021/11/13 02:44:06;;;;;;;2.17;1.70;;;24.40;37.00;;;;;;5065270;28;20441;-75
2021/11/13 02:46:34;;;;;;;3.05;1.70;;;24.40;37.00;;;;;;5066557;28;20396;-74
2021/11/13 02:49:02;;;;;;;2.40;1.57;;;24.40;37.00;;;;;;5064950;28;20498;-75
2021/11/13 02:51:28;;;;;;;2.38;1.63;;;24.40;37.00;;;;;;5066375;28;20392;-75
2021/11/13 02:53:53;;;;;;;3.13;1.73;;;24.40;37.00;;;;;;5066386;28;20447;-75
2021/11/13 02:56:20;;;;;;;2.43;1.63;;;24.30;37.00;;;;;;5065101;28;20392;-72
2021/11/13 02:58:46;;;;;;;2.00;1.50;;;24.30;37.10;;;;;;5066758;28;20399;-74
2021/11/13 03:01:15;;;;;;;2.45;1.60;;;24.30;37.10;;;;;;5066196;28;20395;-74
2021/11/13 03:03:41;;;;;;;2.25;1.70;;;24.30;37.10;;;;;;5066320;28;20469;-75
2021/11/13 03:06:10;;;;;;;2.40;1.88;;;24.20;37.00;;;;;;5064951;28;20480;-75
2021/11/13 03:08:37;;;;;;;2.50;1.80;;;24.20;36.90;;;;;;5066823;28;20392;-75
2021/11/13 03:11:06;;;;;;;2.63;1.60;;;24.20;37.20;;;;;;5064684;28;20454;-75
2021/11/13 03:13:33;;;;;;;2.00;1.70;;;24.20;37.20;;;;;;5066298;28;20486;-74
2021/11/13 03:16:00;;;;;;;2.42;1.70;;;24.10;37.10;;;;;;5065218;28;20897;-75
2021/11/13 03:18:25;;;;;;;2.53;1.75;;;24.10;37.20;;;;;;5066095;28;20410;-75
2021/11/13 03:20:51;;;;;;;2.42;1.90;;;24.10;37.20;;;;;;5065728;28;20396;-74
2021/11/13 03:23:18;;;;;;;2.73;1.70;;;24.10;37.20;;;;;;5064812;28;20441;-75
2021/11/13 03:25:53;;;;;;;2.20;1.70;;;24.00;37.20;;;;;;5064609;28;20403;-73
2021/11/13 03:28:23;;;;;;;2.97;1.98;;;24.00;37.30;;;;;;5064901;28;20823;-75
2021/11/13 03:30:49;;;;;;;2.75;2.10;;;24.00;37.30;;;;;;5065937;28;20387;-73
2021/11/13 03:33:15;;;;;;;2.70;1.80;;;24.00;37.30;;;;;;5065590;28;20468;-74
2021/11/13 03:35:40;;;;;;;2.40;1.90;;;23.90;37.30;;;;;;5064664;28;20395;-73
2021/11/13 03:38:08;;;;;;;2.15;1.67;;;23.90;37.30;;;;;;5065452;28;20407;-75
2021/11/13 03:40:35;;;;;;;2.88;1.83;;;23.90;37.30;;;;;;5065461;28;20395;-75
2021/11/13 03:43:02;;;;;;;2.50;1.90;;;23.90;37.40;;;;;;5065631;28;20742;-73
2021/11/13 03:45:28;;;;;;;2.58;1.90;;;23.90;37.30;;;;;;5064211;28;20392;-74
2021/11/13 03:47:55;;;;;;;3.92;2.10;;;23.90;37.40;;;;;;5065239;28;20432;-75
2021/11/13 03:50:21;;;;;;;3.53;2.10;;;23.90;37.40;;;;;;5064552;28;20395;-73
2021/11/13 03:52:47;;;;;;;2.92;1.92;;;23.80;37.40;;;;;;5064198;28;20499;-74
2021/11/13 03:55:12;;;;;;;2.65;2.00;;;23.80;37.40;;;;;;5065623;28;20553;-74
2021/11/13 03:57:38;;;;;;;2.47;1.80;;;23.80;37.40;;;;;;5065590;28;20419;-75
2021/11/13 04:00:07;;;;;;;2.83;2.20;;;23.80;37.40;;;;;;5065294;28;20403;-72
2021/11/13 04:02:33;;;;;;;3.17;1.88;;;23.70;37.50;;;;;;5065140;28;20483;-72
2021/11/13 04:04:58;;;;;;;3.08;2.15;;;23.70;37.50;;;;;;5065281;28;20782;-75
2021/11/13 04:07:24;;;;;;;2.80;2.00;;;23.70;37.50;;;;;;5064210;28;20758;-75
2021/11/13 04:09:50;;;;;;;3.17;2.00;;;23.70;37.50;;;;;;5065153;28;20513;-75
2021/11/13 04:12:16;;;;;;;5.10;2.40;;;23.70;37.60;;;;;;5062779;28;20396;-73
2021/11/13 04:14:42;;;;;;;3.63;2.47;;;23.70;37.40;;;;;;5065192;28;20403;-76
2021/11/13 04:17:08;;;;;;;3.60;2.50;;;23.60;37.60;;;;;;5064924;28;20430;-74
2021/11/13 04:19:34;;;;;;;3.00;2.35;;;23.60;37.60;;;;;;5064675;28;20396;-74
2021/11/13 04:22:00;;;;;;;4.10;2.30;;;23.60;37.60;;;;;;5064646;28;20408;-74
2021/11/13 04:24:26;;;;;;;3.30;2.20;;;23.50;37.60;;;;;;5064795;28;20403;-74
2021/11/13 04:26:51;;;;;;;3.53;2.10;;;23.50;37.60;;;;;;5065128;28;20388;-75
2021/11/13 04:29:17;;;;;;;2.90;2.20;;;23.50;37.70;;;;;;5064443;28;20396;-72
2021/11/13 04:31:43;;;;;;;3.13;2.20;;;23.50;37.70;;;;;;5064683;28;20414;-75
2021/11/13 04:34:14;;;;;;;2.90;2.20;;;23.50;37.70;;;;;;5063264;28;20447;-75
2021/11/13 04:36:44;;;;;;;3.58;2.20;;;23.50;37.80;;;;;;5064411;28;20433;-75
2021/11/13 04:39:11;;;;;;;2.58;1.90;;;23.50;37.70;;;;;;5064449;28;20392;-74
2021/11/13 04:41:37;;;;;;;3.05;2.20;;;23.40;37.70;;;;;;5063156;28;20449;-74
2021/11/13 04:44:04;;;;;;;3.25;2.30;;;23.40;37.70;;;;;;5064670;28;20398;-75
2021/11/13 04:46:30;;;;;;;3.20;2.30;;;23.40;37.80;;;;;;5064294;28;20427;-75
2021/11/13 04:48:55;;;;;;;3.38;2.10;;;23.40;37.80;;;;;;5064541;28;20418;-74
2021/11/13 04:51:22;;;;;;;2.78;2.20;;;23.40;37.90;;;;;;5064297;28;20550;-75
2021/11/13 04:53:48;;;;;;;4.13;2.28;;;23.40;37.90;;;;;;5062689;28;20831;-72
2021/11/13 04:56:14;;;;;;;3.45;2.47;;;23.30;37.80;;;;;;5064483;28;20421;-75
2021/11/13 04:58:40;;;;;;;2.90;2.30;;;23.30;37.90;;;;;;5064253;28;20395;-74
2021/11/13 05:01:07;;;;;;;4.57;2.80;;;23.30;37.90;;;;;;5064168;28;20387;-75
2021/11/13 05:03:33;;;;;;;4.75;2.45;;;23.30;38.00;;;;;;5063726;28;20423;-74
2021/11/13 05:05:58;;;;;;;3.00;2.40;;;23.30;38.00;;;;;;5064417;28;20423;-74
2021/11/13 05:08:24;;;;;;;3.53;2.40;;;23.20;37.90;;;;;;5064091;28;20410;-74
2021/11/13 05:10:50;;;;;;;3.55;2.60;;;23.20;38.00;;;;;;5064030;28;20757;-74
2021/11/13 05:13:17;;;;;;;3.30;2.40;;;23.20;38.00;;;;;;5062902;28;20466;-75
2021/11/13 05:15:44;;;;;;;3.40;2.40;;;23.20;38.00;;;;;;5063981;28;20383;-75
2021/11/13 05:18:09;;;;;;;3.53;2.50;;;23.20;38.00;;;;;;5063110;28;20506;-74
2021/11/13 05:20:35;;;;;;;3.85;2.47;;;23.20;38.00;;;;;;5063784;28;20379;-74
2021/11/13 05:23:01;;;;;;;2.78;2.17;;;23.10;38.10;;;;;;5063756;28;20439;-75
2021/11/13 05:25:27;;;;;;;3.42;2.45;;;23.10;38.10;;;;;;5063919;28;20387;-75
2021/11/13 05:27:53;;;;;;;4.20;2.55;;;23.10;38.10;;;;;;5063622;28;20392;-74
2021/11/13 05:30:20;;;;;;;3.20;2.47;;;23.10;38.20;;;;;;5063803;28;20415;-75
2021/11/13 05:32:46;;;;;;;3.58;2.50;;;23.10;38.20;;;;;;5062167;28;20412;-73
2021/11/13 05:35:13;;;;;;;4.53;2.30;;;23.00;38.10;;;;;;5063243;28;20400;-74
2021/11/13 05:37:39;;;;;;;3.40;2.60;;;23.00;38.20;;;;;;5062356;28;20427;-75
2021/11/13 05:40:07;;;;;;;3.13;2.53;;;23.00;38.20;;;;;;5063350;28;20388;-75
2021/11/13 05:42:34;;;;;;;3.35;2.22;;;23.00;38.30;;;;;;5061549;28;20398;-73
2021/11/13 05:45:00;;;;;;;3.30;2.80;;;23.00;38.20;;;;;;5063594;28;20416;-75
2021/11/13 05:47:26;;;;;;;3.30;2.38;;;23.00;38.20;;;;;;5063344;28;20387;-74
2021/11/13 05:49:52;;;;;;;3.50;2.40;;;22.90;38.30;;;;;;5063397;28;20573;-73
2021/11/13 05:52:18;;;;;;;3.97;2.50;;;22.90;38.30;;;;;;5063149;28;21479;-75
2021/11/13 05:54:44;;;;;;;3.20;2.58;;;22.90;38.20;;;;;;5063302;28;20434;-71
2021/11/13 05:57:10;;;;;;;3.55;2.45;;;22.90;38.20;;;;;;5063474;28;20388;-75
2021/11/13 05:59:35;;;;;;;4.27;2.40;;;22.90;38.30;;;;;;5068689;28;20426;-75
2021/11/13 06:02:01;;;;;;;3.55;2.50;;;22.90;38.40;;;;;;5072056;28;20387;-75
2021/11/13 06:04:27;;;;;;;4.40;2.70;;;22.90;38.30;;;;;;5072035;28;20805;-75
2021/11/13 06:06:52;;;;;;;4.00;2.60;;;22.80;38.30;;;;;;5072165;28;20471;-75
2021/11/13 06:09:18;;;;;;;3.27;2.50;;;22.80;38.50;;;;;;5072036;28;20451;-76
2021/11/13 06:11:43;;;;;;;3.90;2.67;;;22.80;38.50;;;;;;5072114;28;20456;-76
2021/11/13 06:14:09;;;;;;;3.35;2.58;;;22.80;38.50;;;;;;5076001;28;20514;-76
2021/11/13 06:16:35;;;;;;;5.50;2.47;;;22.70;38.60;;;;;;5076251;28;20387;-76
2021/11/13 06:19:01;;;;;;;3.85;2.25;;;22.80;38.70;;;;;;5076098;28;20860;-76
2021/11/13 06:21:26;;;;;;;3.30;2.27;;;22.80;38.60;;;;;;5075701;28;20391;-76
2021/11/13 06:23:52;;;;;;;3.20;2.35;;;22.80;38.80;;;;;;5076192;28;20395;-76
2021/11/13 06:26:18;;;;;;;3.93;2.50;;;22.70;38.50;;;;;;5075715;28;20525;-76
2021/11/13 06:28:44;;;;;;;3.28;2.70;;;22.70;38.70;;;;;;5071850;28;20753;-76
2021/11/13 06:31:10;;;;;;;3.60;2.70;;;22.70;38.60;;;;;;5075338;28;20502;-75
2021/11/13 06:33:36;;;;;;;3.17;2.53;;;22.70;38.70;;;;;;5075270;28;20817;-75
2021/11/13 06:36:03;;;;;;;3.65;2.50;;;22.60;38.60;;;;;;5075589;28;20395;-74
2021/11/13 06:38:29;;;;;;;5.50;2.80;;;22.60;39.00;;;;;;5074151;28;20552;-73
2021/11/13 06:40:55;;;;;;;6.13;3.70;;;22.70;39.60;;;;;;5073398;28;20391;-74
2021/11/13 06:43:20;;;;;;;8.60;4.00;;;22.70;40.00;;;;;;5074412;28;20387;-72
2021/11/13 06:45:46;;;;;;;11.87;3.40;;;22.70;39.50;;;;;;5075000;28;20383;-72
2021/11/13 06:48:12;;;;;;;6.47;3.67;;;22.60;40.60;;;;;;5074917;28;20796;-73
2021/11/13 06:50:38;;;;;;;6.30;3.37;;;22.50;40.00;;;;;;5074952;28;20477;-72
2021/11/13 06:53:04;;;;;;;7.65;3.28;;;22.50;40.30;;;;;;5074825;28;20908;-72
2021/11/13 06:55:30;;;;;;;5.70;3.15;;;22.50;40.20;;;;;;5074826;28;20388;-72
2021/11/13 06:57:56;;;;;;;9.55;3.60;;;22.50;40.20;;;;;;5074800;28;20402;-72
2021/11/13 07:00:22;;;;;;;8.15;3.55;;;22.50;40.30;;;;;;5074713;28;20451;-72
2021/11/13 07:02:48;;;;;;;8.02;4.40;;;22.50;40.40;;;;;;5074677;28;20392;-72
2021/11/13 07:05:14;;;;;;;6.97;4.13;;;22.40;40.10;;;;;;5074646;28;20399;-72
2021/11/13 07:07:39;;;;;;;8.18;3.88;;;22.40;40.70;;;;;;5074744;28;20432;-72
2021/11/13 07:10:12;;;;;;;13.82;5.47;;;22.30;41.30;;;;;;5074752;28;20384;-72
2021/11/13 07:12:39;;;;;;;26.60;24.30;;;22.40;41.30;;;;;;5072939;28;20407;-73
2021/11/13 07:15:06;;;;;;;20.17;13.67;;;22.30;41.10;;;;;;5073897;28;20476;-72
2021/11/13 07:17:32;;;;;;;18.63;13.07;;;22.30;42.80;;;;;;5074025;28;20399;-72
2021/11/13 07:19:57;;;;;;;18.20;12.43;;;22.40;42.50;;;;;;5062077;28;20389;-71
2021/11/13 07:22:23;;;;;;;15.73;10.10;;;22.40;43.00;;;;;;5060711;28;20420;-72
2021/11/13 07:24:49;;;;;;;15.25;9.68;;;22.50;42.60;;;;;;5053828;28;20455;-72
2021/11/13 07:27:15;;;;;;;15.43;9.27;;;22.40;42.00;;;;;;5054062;28;20397;-72
2021/11/13 07:29:45;;;;;;;14.05;8.27;;;22.40;41.90;;;;;;5054089;28;20385;-72
2021/11/13 07:32:16;;;;;;;13.23;8.48;;;22.50;41.80;;;;;;5054309;28;20392;-72
2021/11/13 07:34:42;;;;;;;10.82;8.45;;;22.50;41.80;;;;;;5054250;28;20409;-72
2021/11/13 07:37:09;;;;;;;65.15;50.67;;;22.40;40.80;;;;;;5054065;28;20891;-71
2021/11/13 07:39:35;;;;;;;165.73;115.28;;;22.50;42.10;;;;;;5053951;28;20378;-72
2021/11/13 07:42:01;;;;;;;249.43;169.30;;;22.50;42.10;;;;;;5052979;28;20480;-72
2021/11/13 07:44:26;;;;;;;137.57;90.00;;;22.50;42.20;;;;;;5053567;28;20435;-72
2021/11/13 07:46:55;;;;;;;120.87;85.27;;;22.50;42.50;;;;;;5053822;28;20576;-72
2021/11/13 07:49:21;;;;;;;130.27;91.85;;;22.50;42.20;;;;;;5052368;28;20455;-72
2021/11/13 07:51:47;;;;;;;119.00;79.93;;;22.50;42.20;;;;;;5053268;28;20377;-78
2021/11/13 07:54:13;;;;;;;107.23;77.93;;;22.60;41.90;;;;;;5044144;28;20419;-71
2021/11/13 07:56:39;;;;;;;74.20;48.92;;;22.60;42.00;;;;;;5043552;28;20491;-72
2021/11/13 07:59:05;;;;;;;57.10;39.10;;;22.50;41.70;;;;;;5073346;28;20478;-71
2021/11/13 08:01:31;;;;;;;49.35;34.08;;;22.60;41.40;;;;;;5072852;28;20718;-72
2021/11/13 08:03:57;;;;;;;36.53;28.20;;;22.60;41.10;;;;;;5073353;28;20754;-72
2021/11/13 08:06:22;;;;;;;35.13;25.15;;;22.60;40.50;;;;;;5073169;28;20420;-72
2021/11/13 08:08:48;;;;;;;29.10;22.02;;;22.70;40.10;;;;;;5073360;28;20392;-72
2021/11/13 08:11:15;;;;;;;31.55;20.98;;;22.70;39.90;;;;;;5073141;28;20479;-73
2021/11/13 08:13:42;;;;;;;26.65;19.77;;;22.80;39.70;;;;;;5073057;28;20415;-71
2021/11/13 08:16:08;;;;;;;28.13;18.83;;;22.80;39.50;;;;;;5073189;28;20391;-76
2021/11/13 08:18:35;;;;;;;23.23;17.80;;;22.80;39.10;;;;;;5074096;28;20418;-78
2021/11/13 08:21:01;;;;;;;25.70;17.08;;;22.80;39.50;;;;;;5074481;28;20395;-76
2021/11/13 08:23:28;;;;;;;26.42;16.67;;;22.80;40.30;;;;;;5073610;28;20406;-77
2021/11/13 08:25:53;;;;;;;23.90;15.75;;;22.90;40.00;;;;;;5072733;28;20502;-76
2021/11/13 08:28:20;;;;;;;21.50;15.50;;;23.00;39.80;;;;;;5072027;28;20486;-77
2021/11/13 08:30:47;;;;;;;21.50;14.30;;;23.10;39.40;;;;;;5073529;28;20528;-72
2021/11/13 08:33:14;;;;;;;19.52;13.32;;;23.20;39.40;;;;;;5071927;28;20490;-76
2021/11/13 08:35:43;;;;;;;18.40;13.15;;;23.30;39.30;;;;;;5071511;28;20395;-77
2021/11/13 08:38:14;;;;;;;20.40;12.13;;;23.40;38.90;;;;;;5072077;28;20391;-78
2021/11/13 08:40:41;;;;;;;17.15;11.30;;;23.40;39.10;;;;;;5073438;28;20380;-76
2021/11/13 08:43:06;;;;;;;17.60;11.70;;;23.40;38.40;;;;;;5071961;28;20454;-77
2021/11/13 08:45:32;;;;;;;16.05;10.95;;;23.50;38.90;;;;;;5071978;28;20400;-76
2021/11/13 08:47:59;;;;;;;14.88;10.13;;;23.60;38.90;;;;;;5073081;28;20419;-74
2021/11/13 08:50:27;;;;;;;15.98;9.57;;;23.60;38.30;;;;;;5073200;28;20430;-76
2021/11/13 08:52:57;;;;;;;14.52;9.52;;;23.50;38.60;;;;;;5073027;28;20920;-77
2021/11/13 08:55:26;;;;;;;12.10;8.63;;;23.50;38.80;;;;;;5073093;28;20376;-79
2021/11/13 08:57:53;;;;;;;15.02;9.48;;;23.50;38.10;;;;;;5068234;28;20406;-77
2021/11/13 09:00:28;;;;;;;13.60;8.98;;;23.50;39.30;;;;;;5065419;28;20390;-77
2021/11/13 09:02:56;;;;;;;12.95;9.02;;;23.70;39.00;;;;;;5064764;28;20396;-74
2021/11/13 09:05:23;;;;;;;13.02;8.65;;;23.70;38.40;;;;;;5063902;28;20473;-72
2021/11/13 09:07:49;;;;;;;13.27;8.50;;;23.80;38.10;;;;;;5064124;28;20811;-74
2021/11/13 09:10:15;;;;;;;13.13;8.15;;;23.90;37.90;;;;;;5064052;28;20398;-75
2021/11/13 09:12:41;;;;;;;11.90;7.57;;;23.90;37.70;;;;;;5064121;28;20456;-72
2021/11/13 09:15:16;;;;;;;139.97;93.30;;;24.00;37.50;;;;;;5063029;28;20419;-71
2021/11/13 09:17:42;;;;;;;51.25;36.67;;;24.00;37.40;;;;;;5064096;28;20395;-78
2021/11/13 09:20:08;;;;;;;36.37;24.87;;;24.10;37.40;;;;;;5065802;28;20896;-78
2021/11/13 09:22:34;;;;;;;25.73;18.25;;;24.20;37.30;;;;;;5066064;28;20404;-78
2021/11/13 09:25:01;;;;;;;21.75;14.73;;;24.40;37.00;;;;;;5066560;28;20428;-79
2021/11/13 09:27:27;;;;;;;21.23;14.52;;;24.50;36.80;;;;;;5065093;28;20388;-79
2021/11/13 09:29:53;;;;;;;19.90;14.70;;;24.60;36.50;;;;;;5065029;28;20397;-78
2021/11/13 09:32:18;;;;;;;21.83;14.93;;;24.70;36.30;;;;;;5065524;28;20711;-78
2021/11/13 09:34:44;;;;;;;18.70;14.00;;;24.80;36.10;;;;;;5065754;28;20443;-71
2021/11/13 09:37:10;;;;;;;18.23;14.13;;;24.90;36.00;;;;;;5065661;28;20394;-73
2021/11/13 09:39:35;;;;;;;16.35;12.80;;;25.00;35.80;;;;;;5064244;28;20536;-76
2021/11/13 09:42:03;;;;;;;16.00;12.00;;;25.10;35.60;;;;;;5065343;28;21030;-79
2021/11/13 09:44:29;;;;;;;15.18;11.13;;;25.10;35.50;;;;;;5065602;28;20391;-78
2021/11/13 09:46:59;;;;;;;15.73;10.83;;;25.20;35.40;;;;;;5065151;28;20665;-79
2021/11/13 09:49:30;;;;;;;14.38;10.75;;;25.20;35.40;;;;;;5081515;28;20399;-78
2021/11/13 09:51:57;;;;;;;12.07;9.60;;;25.20;35.40;;;;;;5065723;28;20388;-75
2021/11/13 09:54:23;;;;;;;12.35;9.15;;;25.30;35.30;;;;;;5065949;28;20906;-78
2021/11/13 09:56:48;;;;;;;11.88;9.13;;;25.40;35.20;;;;;;5065979;28;20501;-79
2021/11/13 09:59:14;;;;;;;11.60;8.75;;;25.40;35.10;;;;;;5066046;28;20869;-79
2021/11/13 10:01:40;;;;;;;12.03;8.20;;;25.50;35.10;;;;;;5064751;28;20406;-78
2021/11/13 10:04:06;;;;;;;11.43;7.78;;;25.50;35.10;;;;;;5065369;28;20395;-76
2021/11/13 10:06:32;;;;;;;9.23;7.57;;;25.50;35.10;;;;;;5065976;28;20451;-79
2021/11/13 10:08:58;;;;;;;10.38;7.30;;;25.60;34.90;;;;;;5065577;28;20388;-79
2021/11/13 10:11:25;;;;;;;8.65;6.72;;;25.60;35.00;;;;;;5063486;28;20854;-80
2021/11/13 10:13:53;;;;;;;8.75;6.90;;;25.40;34.80;;;;;;5062929;28;20423;-74
2021/11/13 10:16:33;;;;;;;10.48;6.50;;;25.50;35.10;;;;;;5063208;28;20395;-73
2021/11/13 10:19:08;;;;;;;8.85;6.70;;;25.60;35.00;;;;;;5061908;28;20407;-73
2021/11/13 10:21:35;;;;;;;8.45;6.45;;;25.60;35.00;;;;;;5079599;28;20414;-80
2021/11/13 10:24:14;;;;;;;8.60;6.20;;;25.60;34.90;;;;;;5064563;28;20395;-73
2021/11/13 10:26:44;;;;;;;7.45;5.55;;;25.60;34.80;;;;;;5062063;28;20470;-80
2021/11/13 10:29:15;;;;;;;9.55;5.93;;;25.70;34.80;;;;;;5062438;28;20552;-79
2021/11/13 10:31:46;;;;;;;6.70;5.20;;;25.70;34.80;;;;;;5063034;28;20384;-73
2021/11/13 10:34:19;;;;;;;6.35;4.97;;;25.70;34.90;;;;;;5063347;28;20510;-75
2021/11/13 10:36:48;;;;;;;7.20;5.03;;;25.60;34.80;;;;;;5062358;28;20427;-78
2021/11/13 10:39:17;;;;;;;7.70;4.80;;;25.60;34.80;;;;;;5063936;28;20745;-81
2021/11/13 10:41:48;;;;;;;6.80;4.38;;;25.60;34.80;;;;;;5063776;28;20394;-80
2021/11/13 10:44:17;;;;;;;6.30;3.67;;;25.50;34.40;;;;;;5063921;28;20474;-78
2021/11/13 10:46:44;;;;;;;15.18;4.60;;;25.50;34.00;;;;;;5063658;28;20396;-81
2021/11/13 10:49:12;;;;;;;12.95;4.60;;;25.40;34.10;;;;;;5062949;28;20399;-79
2021/11/13 10:51:38;;;;;;;9.83;3.90;;;25.40;34.30;;;;;;5063334;28;20384;-73
2021/11/13 10:54:14;;;;;;;7.50;3.65;;;25.30;34.50;;;;;;5062029;28;20419;-78
2021/11/13 10:56:53;;;;;;;10.02;3.97;;;25.30;34.70;;;;;;5063849;28;20392;-83
2021/11/13 10:59:25;;;;;;;7.32;3.70;;;25.30;35.00;;;;;;5066517;28;20404;-81
2021/11/13 11:01:51;;;;;;;8.02;4.03;;;25.30;35.20;;;;;;5068478;28;21024;-81
2021/11/13 11:04:23;;;;;;;8.10;4.35;;;25.30;35.30;;;;;;5067387;28;20942;-77
2021/11/13 11:07:01;;;;;;;8.93;4.13;;;25.30;35.70;;;;;;5066371;28;20403;-81
2021/11/13 11:09:35;;;;;;;7.57;3.73;;;25.30;36.30;;;;;;5068754;28;20495;-80
2021/11/13 11:12:11;;;;;;;6.82;4.05;;;25.30;35.90;;;;;;5068393;28;20412;-82
2021/11/13 11:14:41;;;;;;;13.70;8.33;;;25.30;36.20;;;;;;5067621;28;20488;-82
2021/11/13 11:17:12;;;;;;;12.00;5.70;;;25.30;36.40;;;;;;5066590;28;20394;-81
2021/11/13 11:19:38;;;;;;;10.63;5.32;;;25.30;36.40;;;;;;5066552;28;20399;-79
2021/11/13 11:22:15;;;;;;;8.43;4.88;;;25.30;36.40;;;;;;5065491;28;20407;-77
2021/11/13 11:24:42;;;;;;;39.08;19.98;;;25.30;36.30;;;;;;5066692;28;20387;-85
2021/11/13 11:27:11;;;;;;;19.80;10.95;;;25.30;36.40;;;;;;5065460;28;20466;-82
2021/11/13 11:29:45;;;;;;;14.75;8.07;;;25.30;36.40;;;;;;5066717;28;20402;-79
2021/11/13 11:32:14;;;;;;;11.13;6.72;;;25.30;36.50;;;;;;5062326;28;20387;-74
2021/11/13 11:34:42;;;;;;;10.70;6.20;;;25.40;36.50;;;;;;5061428;28;20422;-76
2021/11/13 11:37:10;;;;;;;10.77;6.32;;;25.40;36.40;;;;;;5062548;28;20384;-78
2021/11/13 11:39:36;;;;;;;10.48;6.20;;;25.50;36.30;;;;;;5061250;28;20482;-76
2021/11/13 11:42:03;;;;;;;10.32;6.00;;;25.50;36.30;;;;;;5061690;28;20514;-73
2021/11/13 11:44:29;;;;;;;10.97;5.80;;;25.50;36.10;;;;;;5062267;28;20400;-77
2021/11/13 11:46:55;;;;;;;11.38;6.00;;;25.50;36.00;;;;;;5065512;28;20388;-80
2021/11/13 11:49:21;;;;;;;12.13;5.63;;;25.50;36.10;;;;;;5066691;28;20388;-79
2021/11/13 11:51:47;;;;;;;21.75;6.80;;;25.60;36.40;;;;;;5063789;28;20489;-74
2021/11/13 11:54:14;;;;;;;14.43;5.97;;;25.50;36.50;;;;;;5061785;28;20423;-78
2021/11/13 11:57:01;;;;;;;12.88;6.18;;;25.50;36.50;;;;;;5062530;28;20391;-79
2021/11/13 11:59:36;;;;;;;13.88;6.30;;;25.50;36.50;;;;;;5063781;28;20400;-79
2021/11/13 12:02:12;;;;;;;10.52;4.97;;;25.60;36.50;;;;;;5063247;28;20414;-77
2021/11/13 12:04:38;;;;;;;15.40;6.13;;;25.50;36.40;;;;;;5063455;28;20467;-78
2021/11/13 12:07:05;;;;;;;13.27;5.80;;;25.50;36.40;;;;;;5062631;28;20384;-75
2021/11/13 12:09:30;;;;;;;10.65;5.03;;;25.60;36.40;;;;;;5062455;28;20400;-76
2021/11/13 12:12:36;;;;;;;11.23;5.50;;;25.60;36.40;;;;;;5062605;28;20391;-75
2021/11/13 12:15:23;;;;;;;10.90;5.18;;;25.70;36.40;;;;;;5026604;28;20401;-83
2021/11/13 12:17:51;;;;;;;13.70;5.75;;;25.70;36.30;;;;;;5033672;28;20821;-76
2021/11/13 12:20:23;;;;;;;14.15;7.30;;;25.80;36.30;;;;;;5066307;28;20835;-80
2021/11/13 12:22:57;;;;;;;12.73;7.35;;;25.80;36.20;;;;;;5066095;28;20410;-74
2021/11/13 12:25:28;;;;;;;13.82;6.43;;;25.90;35.90;;;;;;5062538;28;20388;-76
2021/11/13 12:28:18;;;;;;;11.07;6.05;;;25.90;35.90;;;;;;5062712;28;20435;-79
2021/11/13 12:30:53;;;;;;;10.57;6.00;;;26.00;35.60;;;;;;5060511;28;21007;-77
2021/11/13 12:33:25;;;;;;;12.48;6.40;;;26.10;35.30;;;;;;5061774;28;20415;-78
2021/11/13 12:35:57;;;;;;;11.40;6.07;;;26.10;35.30;;;;;;5062643;28;20794;-78
2021/11/13 12:38:45;;;;;;;10.80;6.28;;;26.10;35.30;;;;;;5061674;28;20393;-75
2021/11/13 12:41:20;;;;;;;11.63;5.93;;;26.10;35.10;;;;;;5061743;28;20391;-78